Time;durP1;ratioP1;P1;durP2;ratioP2;P2;SDS_P1;SDS_P2;PMS_P1;PMS_P2;Temp;Humidity;BMP_temperature;BMP_pressure;BME280_temperature;BME280_humidity;BME280_pressure;Samples;Min_cycle;Max_cycle;Signal;HPM_P1;HPM_P2
2022/09/03 00:01:18;;;;;;;7.10;4.35;;;;;;;15.48;53.58;101047.69;5980347;24;20098;-83
2022/09/03 00:03:54;;;;;;;8.13;4.30;;;;;;;15.65;53.61;101082.81;5980233;24;20128;-79
2022/09/03 00:06:42;;;;;;;8.57;4.95;;;;;;;15.62;53.72;101081.25;5980176;24;20097;-75
2022/09/03 00:09:30;;;;;;;9.75;4.57;;;;;;;15.49;53.56;101065.78;5957032;24;20514;-84
2022/09/03 00:12:14;;;;;;;7.88;4.75;;;;;;;15.40;53.46;101050.06;5979794;23;20076;-74
2022/09/03 00:14:46;;;;;;;9.90;4.95;;;;;;;15.57;54.08;101078.19;5980167;24;20482;-84
2022/09/03 00:17:17;;;;;;;11.30;5.07;;;;;;;15.57;54.29;101072.16;5980191;24;20380;-74
2022/09/03 00:19:54;;;;;;;11.40;5.05;;;;;;;15.50;54.11;101074.41;5980140;24;20012;-75
2022/09/03 00:22:27;;;;;;;9.15;4.70;;;;;;;15.55;54.07;101082.69;5980340;24;20373;-75
2022/09/03 00:24:53;;;;;;;11.65;4.80;;;;;;;15.50;54.48;101077.00;6054377;23;20010;-76
2022/09/03 00:27:23;;;;;;;11.00;5.40;;;;;;;15.44;54.49;101067.94;6125519;23;20037;-77
2022/09/03 00:29:54;;;;;;;10.30;4.85;;;;;;;15.46;55.05;101073.81;6125702;23;20013;-76
2022/09/03 00:32:26;;;;;;;9.10;4.80;;;;;;;15.50;54.30;101077.00;6125660;23;20085;-74
2022/09/03 00:34:59;;;;;;;13.15;5.00;;;;;;;15.30;54.86;101055.16;6125474;23;20006;-74
2022/09/03 00:37:28;;;;;;;9.38;5.03;;;;;;;15.43;54.33;101081.84;6126109;23;20772;-74
2022/09/03 00:39:54;;;;;;;9.43;4.93;;;;;;;15.44;54.49;101088.75;6099579;23;20002;-74
2022/09/03 00:42:38;;;;;;;8.15;4.95;;;;;;;15.35;54.30;101070.44;6099876;23;20017;-75
2022/09/03 00:45:15;;;;;;;10.18;5.20;;;;;;;15.44;54.29;101082.72;6125890;23;20028;-78
2022/09/03 00:47:47;;;;;;;13.38;5.30;;;;;;;15.45;54.08;101081.75;6125960;23;20014;-78
2022/09/03 00:50:19;;;;;;;9.00;4.53;;;;;;;15.43;54.43;101081.03;6125206;23;20018;-74
2022/09/03 00:52:48;;;;;;;12.40;5.25;;;;;;;15.39;54.20;101077.03;6099608;23;20006;-77
2022/09/03 00:55:40;;;;;;;13.38;5.63;;;;;;;15.37;53.99;101076.34;6125785;23;20010;-79
2022/09/03 00:58:15;;;;;;;11.45;5.82;;;;;;;15.35;54.13;101075.63;6125531;23;20001;-75
2022/09/03 01:00:44;;;;;;;10.55;5.72;;;;;;;15.22;54.43;101062.75;6099562;23;20068;-80
2022/09/03 01:03:22;;;;;;;9.77;5.68;;;;;;;15.38;54.24;101077.97;6125763;23;20034;-76
2022/09/03 01:06:06;;;;;;;14.23;5.55;;;;;;;15.36;54.48;101078.09;6125594;23;20002;-75
2022/09/03 01:08:58;;;;;;;10.15;6.30;;;;;;;15.40;54.22;101071.69;6099147;23;20033;-81
2022/09/03 01:11:58;;;;;;;12.35;5.63;;;;;;;15.38;54.54;101071.00;6119653;23;20038;-74
2022/09/03 01:14:29;;;;;;;9.75;5.60;;;;;;;15.40;54.07;101070.88;5979613;24;20008;-75
2022/09/03 01:17:05;;;;;;;9.82;5.95;;;;;;;15.41;54.26;101069.94;5979887;23;20492;-74
2022/09/03 01:19:39;;;;;;;10.00;5.55;;;;;;;15.40;54.32;101073.47;5979774;24;20507;-75
2022/09/03 01:22:25;;;;;;;14.55;6.43;;;;;;;15.33;54.28;101069.69;5979950;24;20109;-77
2022/09/03 01:25:16;;;;;;;12.43;5.88;;;;;;;15.30;54.39;101077.75;5979924;24;20040;-82
2022/09/03 01:28:19;;;;;;;13.30;6.07;;;;;;;15.12;54.80;101049.63;5956337;23;20020;-76
2022/09/03 01:30:55;;;;;;;19.25;6.90;;;;;;;15.20;54.83;101075.88;5979669;24;20439;-81
2022/09/03 01:33:43;;;;;;;14.10;5.78;;;;;;;15.18;54.55;101080.38;5980019;24;20458;-73
2022/09/03 01:36:17;;;;;;;11.15;6.00;;;;;;;15.12;55.11;101083.44;5979283;24;20019;-75
2022/09/03 01:38:45;;;;;;;14.00;6.93;;;;;;;15.08;55.03;101084.66;5979721;24;20087;-78
2022/09/03 01:44:40;;;;;;;9.85;5.88;;;;;;;14.91;55.27;101064.31;5979993;24;20025;-75
2022/09/03 01:47:29;;;;;;;12.27;5.97;;;;;;;15.01;55.27;101085.22;5979840;24;20082;-72
2022/09/03 01:50:06;;;;;;;11.38;5.72;;;;;;;14.97;55.35;101074.25;6035472;23;20017;-75
2022/09/03 01:52:55;;;;;;;10.73;5.63;;;;;;;14.97;55.31;101073.44;6096556;23;20013;-74
2022/09/03 01:55:38;;;;;;;12.15;5.30;;;;;;;14.95;55.69;101070.13;6096011;23;20093;-74
2022/09/03 01:58:20;;;;;;;9.43;5.45;;;;;;;14.92;55.31;101073.75;6096624;23;20030;-74
2022/09/03 02:00:52;;;;;;;11.32;6.22;;;;;;;14.76;55.78;101049.91;6096128;23;20010;-76
2022/09/03 02:03:18;;;;;;;10.63;5.40;;;;;;;14.86;55.85;101077.69;6096156;23;20010;-74
2022/09/03 02:05:46;;;;;;;8.98;5.60;;;;;;;14.85;55.74;101076.03;6095719;23;20497;-80
2022/09/03 02:08:12;;;;;;;10.02;5.00;;;;;;;14.85;55.95;101075.22;6096141;23;20006;-77
2022/09/03 02:10:41;;;;;;;10.23;5.40;;;;;;;14.80;56.08;101064.31;6096759;23;20066;-80
2022/09/03 02:13:12;;;;;;;9.43;5.00;;;;;;;14.68;56.47;101053.09;6097846;23;20032;-76
2022/09/03 02:15:42;;;;;;;12.52;5.85;;;;;;;14.79;56.16;101073.88;6097776;23;20081;-74
2022/09/03 02:18:16;;;;;;;8.40;4.32;;;;;;;14.68;56.41;101047.06;6097940;23;20011;-74
2022/09/03 02:20:41;;;;;;;9.80;5.28;;;;;;;14.72;56.04;101051.06;6097655;23;20022;-75
2022/09/03 02:23:07;;;;;;;9.77;5.43;;;;;;;14.80;56.35;101056.50;6097583;23;20014;-75
2022/09/03 02:25:37;;;;;;;11.77;5.07;;;;;;;14.75;56.41;101048.22;6098169;23;20002;-76
2022/09/03 02:28:05;;;;;;;11.70;4.72;;;;;;;14.78;56.25;101061.00;6121630;23;20017;-76
2022/09/03 02:30:30;;;;;;;11.95;5.32;;;;;;;14.66;57.23;101051.56;6127090;23;20009;-80
2022/09/03 02:32:56;;;;;;;10.65;5.63;;;;;;;14.67;56.70;101061.84;6126679;23;20006;-82
2022/09/03 02:35:21;;;;;;;9.55;5.63;;;;;;;14.63;56.89;101068.19;6126909;23;20012;-82
2022/09/03 02:37:47;;;;;;;9.52;5.82;;;;;;;14.60;56.99;101063.25;6126808;23;20048;-80
2022/09/03 02:40:12;;;;;;;10.73;5.88;;;;;;;14.54;57.25;101059.31;6100905;23;20006;-81
2022/09/03 02:42:37;;;;;;;10.73;6.07;;;;;;;14.47;57.17;101055.56;6127261;23;20002;-78
2022/09/03 02:45:16;;;;;;;10.77;5.57;;;;;;;14.46;57.41;101066.91;6126813;23;20006;-76
2022/09/03 02:47:44;;;;;;;10.90;5.72;;;;;;;14.41;57.47;101050.78;6126572;23;20436;-80
2022/09/03 02:50:10;;;;;;;12.27;5.38;;;;;;;14.44;57.69;101063.53;6126777;23;20002;-78
2022/09/03 02:52:35;;;;;;;9.38;5.18;;;;;;;14.35;57.65;101049.50;6126829;23;20421;-76
2022/09/03 02:55:00;;;;;;;11.32;6.20;;;;;;;14.43;57.53;101071.44;6126619;23;20057;-75
2022/09/03 02:57:26;;;;;;;12.82;6.07;;;;;;;14.38;57.89;101066.59;6127056;23;20016;-78
2022/09/03 02:59:51;;;;;;;10.30;5.65;;;;;;;14.19;58.27;101042.94;6126796;23;19998;-76
2022/09/03 03:02:17;;;;;;;14.05;6.10;;;;;;;14.34;57.88;101066.00;6126494;23;20421;-77
2022/09/03 03:04:42;;;;;;;10.63;5.45;;;;;;;14.29;58.94;101067.28;6126851;23;20006;-76
2022/09/03 03:07:08;;;;;;;12.40;6.63;;;;;;;14.28;58.14;101063.03;6126303;23;20009;-77
2022/09/03 03:09:33;;;;;;;13.45;5.90;;;;;;;14.29;57.73;101062.09;6126725;23;20089;-77
2022/09/03 03:11:58;;;;;;;10.25;6.05;;;;;;;14.24;58.37;101065.03;6126814;23;20002;-81
2022/09/03 03:14:23;;;;;;;9.98;5.75;;;;;;;14.19;58.57;101059.34;6126089;23;20029;-83
2022/09/03 03:16:50;;;;;;;12.65;5.90;;;;;;;14.11;58.36;101051.31;6126821;23;20052;-77
2022/09/03 03:19:15;;;;;;;14.35;6.28;;;;;;;14.16;58.19;101061.34;6126635;23;20081;-81
2022/09/03 03:21:40;;;;;;;10.63;5.80;;;;;;;14.09;58.02;101045.41;6125989;23;20417;-80
2022/09/03 03:24:06;;;;;;;10.52;5.60;;;;;;;14.20;58.05;101063.59;6126548;23;20133;-76
2022/09/03 03:26:32;;;;;;;11.55;5.75;;;;;;;14.06;58.89;101056.84;6126480;23;20068;-78
2022/09/03 03:29:00;;;;;;;8.98;5.28;;;;;;;14.05;58.97;101059.53;6126194;23;20010;-77
2022/09/03 03:31:26;;;;;;;9.30;5.55;;;;;;;14.04;58.92;101057.88;6126316;23;20524;-79
2022/09/03 03:33:52;;;;;;;12.73;6.43;;;;;;;14.03;58.95;101059.66;6126689;23;20006;-79
2022/09/03 03:36:18;;;;;;;11.05;5.93;;;;;;;13.94;58.77;101041.31;6126241;23;20385;-83
2022/09/03 03:38:44;;;;;;;12.80;5.78;;;;;;;14.05;58.70;101062.97;6126288;23;20006;-75
2022/09/03 03:41:30;;;;;;;10.13;5.70;;;;;;;14.02;58.58;101063.19;6126333;23;20085;-77
2022/09/03 03:43:58;;;;;;;10.38;5.88;;;;;;;14.06;58.69;101082.81;6125083;23;20032;-78
2022/09/03 03:46:24;;;;;;;10.65;5.57;;;;;;;14.03;59.39;101074.41;6126292;23;20065;-77
2022/09/03 03:48:50;;;;;;;11.02;5.78;;;;;;;13.94;58.99;101067.28;6126511;23;20009;-78
2022/09/03 03:51:16;;;;;;;13.55;6.05;;;;;;;13.64;59.74;101021.03;6126455;23;20029;-82
2022/09/03 03:53:42;;;;;;;15.13;6.00;;;;;;;13.82;59.89;101053.44;6125767;23;20001;-78
2022/09/03 03:56:09;;;;;;;12.52;5.70;;;;;;;13.87;59.90;101060.91;6126412;23;20010;-79
2022/09/03 03:58:36;;;;;;;12.77;6.28;;;;;;;13.88;59.64;101065.97;6126228;23;20002;-78
2022/09/03 04:01:06;;;;;;;12.43;5.47;;;;;;;13.77;59.63;101047.78;6126125;23;20029;-79
2022/09/03 04:03:32;;;;;;;9.93;5.85;;;;;;;13.82;59.59;101053.44;6125787;23;20002;-76
2022/09/03 04:06:01;;;;;;;11.10;5.47;;;;;;;13.89;59.65;101061.63;6126085;23;20132;-83
2022/09/03 04:08:27;;;;;;;8.73;5.43;;;;;;;13.86;60.13;101056.63;6126015;23;20017;-80
2022/09/03 04:10:53;;;;;;;11.30;6.30;;;;;;;13.82;59.36;101043.06;6126109;23;20009;-77
2022/09/03 04:13:19;;;;;;;9.88;5.57;;;;;;;13.74;59.65;101032.41;6125820;23;20001;-78
2022/09/03 04:15:45;;;;;;;13.93;5.90;;;;;;;13.89;59.52;101059.84;6125813;23;20041;-82
2022/09/03 04:18:10;;;;;;;13.70;6.03;;;;;;;13.86;60.34;101052.25;6125926;23;20093;-75
2022/09/03 04:20:36;;;;;;;10.32;5.68;;;;;;;13.88;60.24;101055.59;6126425;23;20081;-75
2022/09/03 04:23:02;;;;;;;11.30;5.57;;;;;;;13.89;59.69;101054.66;6125794;23;20054;-76
2022/09/03 04:25:27;;;;;;;11.18;5.60;;;;;;;13.82;59.56;101035.28;6125844;23;20395;-78
2022/09/03 04:27:53;;;;;;;9.98;5.32;;;;;;;13.95;59.71;101063.75;6125695;23;20088;-79
2022/09/03 04:30:19;;;;;;;9.05;4.65;;;;;;;13.88;59.84;101050.41;6125852;23;20006;-76
2022/09/03 04:32:53;;;;;;;9.25;5.50;;;;;;;13.86;59.98;101054.88;6125562;23;20002;-79
2022/09/03 04:35:24;;;;;;;10.95;6.03;;;;;;;13.59;59.75;101011.00;6125778;23;20010;-78
2022/09/03 04:37:50;;;;;;;10.73;5.95;;;;;;;13.73;59.70;101043.72;6125560;23;20013;-78
2022/09/03 04:40:16;;;;;;;8.50;6.13;;;;;;;13.79;60.51;101051.09;6125818;23;20002;-80
2022/09/03 04:42:41;;;;;;;11.18;5.93;;;;;;;13.78;60.19;101046.84;6126128;23;20428;-76
2022/09/03 04:45:07;;;;;;;12.82;5.85;;;;;;;13.75;60.29;101055.66;6125948;23;20037;-80
2022/09/03 04:47:33;;;;;;;14.98;5.80;;;;;;;13.68;60.83;101046.66;6125468;23;20025;-84
2022/09/03 04:49:58;;;;;;;12.93;5.95;;;;;;;13.66;61.13;101055.47;6125644;23;20006;-75
2022/09/03 04:52:24;;;;;;;9.70;5.70;;;;;;;13.66;61.02;101053.72;6125477;23;20002;-80
2022/09/03 04:54:49;;;;;;;11.77;5.85;;;;;;;13.65;60.84;101059.84;6125379;23;20073;-81
2022/09/03 04:57:15;;;;;;;12.50;5.85;;;;;;;13.55;60.82;101039.88;6125619;23;20002;-83
2022/09/03 04:59:41;;;;;;;9.70;5.82;;;;;;;13.65;60.91;101059.03;6125978;23;20056;-80
2022/09/03 05:02:08;;;;;;;9.50;5.75;;;;;;;13.57;60.97;101051.81;6126124;23;20089;-82
2022/09/03 05:04:33;;;;;;;9.43;5.50;;;;;;;13.62;60.77;101056.66;6125478;23;20341;-80
2022/09/03 05:06:59;;;;;;;9.45;5.40;;;;;;;13.61;61.61;101065.38;6125467;23;20006;-83
2022/09/03 05:09:24;;;;;;;8.98;5.50;;;;;;;13.42;61.24;101029.53;6125431;23;20013;-82
2022/09/03 05:11:49;;;;;;;9.20;5.38;;;;;;;13.54;61.27;101048.59;6125780;23;20006;-83
2022/09/03 05:14:14;;;;;;;9.57;5.45;;;;;;;13.62;61.41;101059.25;6100617;23;20013;-90
2022/09/03 05:16:40;;;;;;;9.57;5.03;;;;;;;13.66;61.13;101058.06;6126255;23;20014;-83
2022/09/03 05:19:06;;;;;;;10.57;5.35;;;;;;;13.64;61.41;101054.78;6099480;23;20010;-91
2022/09/03 05:21:34;;;;;;;9.90;5.63;;;;;;;13.70;61.34;101054.34;6126771;23;20009;-87
2022/09/03 05:24:00;;;;;;;9.73;5.47;;;;;;;13.73;61.76;101064.50;6125964;23;20491;-86
2022/09/03 05:26:29;;;;;;;11.18;5.30;;;;;;;13.78;61.76;101060.63;6126644;23;20018;-88
2022/09/03 05:28:59;;;;;;;12.98;6.05;;;;;;;13.87;61.37;101066.09;6125410;23;20017;-90
2022/09/03 05:31:27;;;;;;;14.35;5.80;;;;;;;13.78;61.48;101036.44;6125952;23;20002;-89
2022/09/03 05:33:57;;;;;;;10.25;5.78;;;;;;;13.86;60.58;101031.50;6125867;23;20002;-88
2022/09/03 05:36:24;;;;;;;10.95;5.85;;;;;;;14.06;61.20;101037.84;6125175;23;20017;-87
2022/09/03 05:38:52;;;;;;;11.50;5.95;;;;;;;14.25;60.80;101060.66;6125546;23;20002;-91
2022/09/03 05:41:19;;;;;;;12.07;5.65;;;;;;;14.24;60.32;101046.84;6126004;23;20002;-86
2022/09/03 05:43:52;;;;;;;16.33;6.20;;;;;;;14.43;60.60;101061.06;6127226;23;20013;-88
2022/09/03 05:46:25;;;;;;;8.85;5.20;;;;;;;14.49;59.87;101058.84;6127783;23;20016;-85
2022/09/03 05:48:50;;;;;;;10.45;5.88;;;;;;;14.60;59.11;101061.47;6127833;23;20013;-90
2022/09/03 05:51:16;;;;;;;10.73;5.70;;;;;;;14.58;59.05;101050.38;6127960;23;20014;-77
2022/09/03 05:53:44;;;;;;;11.77;6.18;;;;;;;14.66;58.63;101043.75;6127450;23;20006;-77
2022/09/03 05:56:12;;;;;;;16.40;5.75;;;;;;;14.80;58.58;101057.34;6104287;23;20090;-77
2022/09/03 05:58:43;;;;;;;10.05;5.55;;;;;;;14.96;58.71;101061.38;6103774;23;20013;-92
2022/09/03 06:01:25;;;;;;;12.35;5.70;;;;;;;15.27;57.93;101065.81;6131009;23;20409;-85
2022/09/03 06:03:58;;;;;;;11.05;5.50;;;;;;;16.29;55.66;101051.47;6129225;23;20013;-77
2022/09/03 06:06:25;;;;;;;8.93;5.00;;;;;;;17.43;51.68;101039.03;6129149;23;20002;-88
2022/09/03 06:08:53;;;;;;;11.90;5.38;;;;;;;18.00;50.14;101058.34;6128812;23;20009;-89
2022/09/03 06:11:20;;;;;;;11.90;5.00;;;;;;;18.09;49.66;101053.22;6127551;23;20355;-75
2022/09/03 06:13:46;;;;;;;12.90;5.35;;;;;;;18.52;49.23;101031.78;6127522;23;20062;-74
2022/09/03 06:16:12;;;;;;;12.38;5.15;;;;;;;19.38;46.17;101053.31;6127697;23;20083;-75
2022/09/03 06:18:37;;;;;;;9.10;5.78;;;;;;;20.16;44.53;101032.53;6128213;23;20006;-81
2022/09/03 06:21:05;;;;;;;11.10;5.32;;;;;;;21.01;43.62;101050.03;6127759;23;20002;-93
2022/09/03 06:23:33;;;;;;;12.38;5.10;;;;;;;21.58;41.69;101052.00;6126923;23;20006;-87
2022/09/03 06:26:10;;;;;;;12.55;4.68;;;;;;;22.16;41.27;101043.16;6127319;23;20037;-78
2022/09/03 06:28:37;;;;;;;12.73;5.15;;;;;;;22.45;38.88;101017.13;6127034;23;20014;-75
2022/09/03 06:31:05;;;;;;;12.98;5.10;;;;;;;22.31;38.75;101049.38;6127894;23;20001;-75
2022/09/03 06:33:34;;;;;;;12.65;5.03;;;;;;;21.41;40.62;101066.94;6127157;23;20515;-79
2022/09/03 06:36:03;;;;;;;8.68;4.90;;;;;;;20.76;42.30;101064.06;6102169;23;20014;-86
2022/09/03 06:38:31;;;;;;;8.80;4.35;;;;;;;20.53;45.29;101061.13;6127445;23;20009;-89
2022/09/03 06:41:03;;;;;;;8.90;4.05;;;;;;;20.04;45.77;101045.06;6126820;23;20025;-87
2022/09/03 06:43:30;;;;;;;10.35;5.07;;;;;;;19.59;45.94;101038.16;6127496;23;20413;-86
2022/09/03 06:45:58;;;;;;;8.27;4.30;;;;;;;19.46;47.19;101062.03;6127191;23;20002;-88
2022/09/03 06:48:24;;;;;;;9.50;4.00;;;;;;;19.16;51.01;101033.56;6127208;23;20012;-79
2022/09/03 06:51:03;;;;;;;9.18;3.80;;;;;;;19.29;49.19;101067.28;6126925;23;20052;-81
2022/09/03 06:53:34;;;;;;;7.40;4.10;;;;;;;19.03;49.74;101062.72;6126958;23;20002;-87
2022/09/03 06:56:02;;;;;;;8.75;4.05;;;;;;;18.75;49.43;101034.91;6126017;23;20009;-89
2022/09/03 06:58:32;;;;;;;9.45;3.88;;;;;;;19.01;49.77;101056.81;6127175;23;20010;-90
2022/09/03 07:01:14;;;;;;;8.13;4.28;;;;;;;19.51;47.54;101047.69;6126157;23;20033;-89
2022/09/03 07:03:41;;;;;;;8.45;3.70;;;;;;;20.30;47.57;101048.53;6126811;23;20006;-89
2022/09/03 07:06:18;;;;;;;7.60;3.60;;;;;;;20.47;48.01;101015.38;6127779;23;20013;-90
2022/09/03 07:08:45;;;;;;;7.22;3.30;;;;;;;20.73;45.40;101064.34;6127001;23;20501;-83
2022/09/03 07:11:15;;;;;;;9.50;4.07;;;;;;;20.84;46.42;101061.44;6126922;23;19997;-80
2022/09/03 07:13:45;;;;;;;7.80;3.53;;;;;;;20.86;45.41;101057.72;6126829;23;20418;-79
2022/09/03 07:16:12;;;;;;;7.53;3.80;;;;;;;20.59;48.99;101029.03;6126615;23;20032;-79
2022/09/03 07:18:38;;;;;;;8.07;3.72;;;;;;;20.68;45.83;101062.22;6126934;23;20016;-81
2022/09/03 07:21:08;;;;;;;7.90;3.58;;;;;;;20.51;45.68;101060.47;6126696;23;20036;-80
2022/09/03 07:23:35;;;;;;;7.90;3.92;;;;;;;20.40;46.85;101037.09;6126478;23;20353;-80
2022/09/03 07:26:03;;;;;;;6.70;3.78;;;;;;;20.43;46.65;101052.56;6126204;23;20049;-80
2022/09/03 07:28:31;;;;;;;10.35;3.53;;;;;;;20.26;46.30;101034.09;6126084;23;20009;-82
2022/09/03 07:31:19;;;;;;;8.93;3.83;;;;;;;20.31;47.89;101058.03;6126656;23;20032;-81
2022/09/03 07:33:46;;;;;;;9.40;4.05;;;;;;;20.19;45.79;101051.41;6126437;23;20002;-81
2022/09/03 07:36:16;;;;;;;11.55;3.90;;;;;;;20.16;46.64;101059.59;6126667;23;20013;-77
2022/09/03 07:38:46;;;;;;;7.38;3.70;;;;;;;20.16;49.21;101064.81;6126454;23;20092;-78
2022/09/03 07:41:13;;;;;;;11.55;4.30;;;;;;;20.08;46.94;101043.78;6126138;23;20092;-77
2022/09/03 07:43:42;;;;;;;9.20;4.28;;;;;;;20.19;47.90;101074.19;6126629;23;20002;-77
2022/09/03 07:46:11;;;;;;;8.05;4.10;;;;;;;20.03;47.87;101052.09;6100272;23;20021;-82
2022/09/03 07:48:38;;;;;;;8.60;4.32;;;;;;;20.33;50.16;101077.06;6126821;23;20005;-77
2022/09/03 07:51:04;;;;;;;8.18;4.25;;;;;;;20.30;48.49;101066.88;6126602;23;20378;-78
2022/09/03 07:53:29;;;;;;;10.02;4.32;;;;;;;20.23;45.76;101062.41;6126918;23;20009;-93
2022/09/03 07:56:06;;;;;;;10.23;4.72;;;;;;;20.01;47.06;101043.56;6126935;23;20084;-81
2022/09/03 07:58:33;;;;;;;11.85;4.60;;;;;;;20.08;47.10;101058.69;6128002;23;20006;-77
2022/09/03 08:01:07;;;;;;;10.48;4.70;;;;;;;20.14;47.25;101072.00;6126058;23;20002;-77
2022/09/03 08:03:34;;;;;;;13.05;5.28;;;;;;;20.05;45.29;101080.78;6126271;23;20006;-76
2022/09/03 08:06:04;;;;;;;12.25;5.45;;;;;;;19.93;47.19;101059.22;6126529;23;20005;-79
2022/09/03 08:08:31;;;;;;;12.57;5.40;;;;;;;20.15;47.45;101081.50;6127341;23;20053;-81
2022/09/03 08:11:08;;;;;;;10.85;4.82;;;;;;;20.14;46.30;101061.50;6126655;23;20013;-76
2022/09/03 08:13:34;;;;;;;12.43;5.40;;;;;;;20.28;48.52;101074.09;6127361;23;20368;-89
2022/09/03 08:16:00;;;;;;;14.40;5.78;;;;;;;20.27;47.36;101072.44;6126356;23;20006;-78
2022/09/03 08:18:26;;;;;;;10.93;5.60;;;;;;;20.22;47.17;101079.09;6126311;23;20340;-81
2022/09/03 08:20:51;;;;;;;21.92;5.47;;;;;;;20.01;47.32;101058.47;6127765;23;20002;-77
2022/09/03 08:23:17;;;;;;;12.70;5.25;;;;;;;20.21;47.12;101082.72;6126685;23;20017;-87
2022/09/03 08:25:43;;;;;;;13.02;5.95;;;;;;;20.12;46.22;101060.84;6126228;23;20012;-79
2022/09/03 08:28:08;;;;;;;16.27;6.25;;;;;;;20.24;45.25;101057.00;6124795;23;20115;-85
2022/09/03 08:30:35;;;;;;;17.77;5.63;;;;;;;20.68;47.03;101080.59;6127148;23;20020;-78
2022/09/03 08:33:03;;;;;;;13.02;5.88;;;;;;;20.81;46.03;101062.59;6126052;23;20029;-81
2022/09/03 08:35:33;;;;;;;9.95;5.85;;;;;;;21.24;48.94;101084.44;6126070;23;20013;-80
2022/09/03 08:38:04;;;;;;;15.27;6.50;;;;;;;21.41;47.42;101088.75;6125711;23;20439;-82
2022/09/03 08:40:35;;;;;;;13.32;6.60;;;;;;;21.44;44.38;101085.84;6126291;23;20006;-79
2022/09/03 08:43:12;;;;;;;17.77;6.90;;;;;;;21.44;45.00;101091.09;6125642;23;20002;-86
2022/09/03 08:45:38;;;;;;;11.88;6.15;;;;;;;21.44;46.03;101088.47;6100310;23;20040;-82
2022/09/03 08:48:12;;;;;;;13.73;6.40;;;;;;;21.30;43.83;101080.38;6125826;23;20022;-82
2022/09/03 08:50:43;;;;;;;13.57;5.75;;;;;;;21.31;47.66;101087.25;6125822;23;20407;-82
2022/09/03 08:53:17;;;;;;;17.53;5.80;;;;;;;21.34;49.22;101090.41;6126841;23;20006;-81
2022/09/03 08:55:49;;;;;;;16.73;6.05;;;;;;;21.37;45.89;101089.25;6127667;23;20010;-83
2022/09/03 08:58:21;;;;;;;17.17;6.03;;;;;;;21.45;49.21;101087.47;6126680;23;20013;-82
2022/09/03 09:01:02;;;;;;;12.23;5.53;;;;;;;21.40;45.63;101070.53;6127466;23;20017;-80
2022/09/03 09:03:51;;;;;;;14.10;5.82;;;;;;;21.57;46.93;101089.78;6126655;23;20006;-91
2022/09/03 09:06:34;;;;;;;13.57;5.13;;;;;;;21.48;46.14;101071.38;6126534;23;20041;-79
2022/09/03 09:09:09;;;;;;;12.20;6.00;;;;;;;21.64;44.35;101085.53;6125962;23;20029;-83
2022/09/03 09:12:02;;;;;;;12.00;5.47;;;;;;;21.57;44.48;101090.63;6125682;23;20041;-81
2022/09/03 09:14:33;;;;;;;12.95;5.82;;;;;;;21.52;45.56;101086.81;6125407;23;20025;-82
2022/09/03 09:17:26;;;;;;;16.48;5.57;;;;;;;21.47;45.49;101085.50;6126033;23;20440;-80
2022/09/03 09:19:57;;;;;;;13.63;5.00;;;;;;;21.61;46.46;101086.66;6127011;23;20010;-80
2022/09/03 09:22:28;;;;;;;13.50;5.20;;;;;;;21.75;45.69;101095.75;6128174;23;20064;-78
2022/09/03 09:24:57;;;;;;;15.38;6.15;;;;;;;21.69;43.92;101083.22;6126641;23;20013;-80
2022/09/03 09:27:23;;;;;;;11.43;5.50;;;;;;;21.72;43.99;101088.16;6127723;23;20014;-80
2022/09/03 09:29:50;;;;;;;10.10;5.10;;;;;;;21.69;44.24;101075.34;6127838;23;20006;-78
2022/09/03 09:32:18;;;;;;;14.30;5.10;;;;;;;21.70;43.45;101077.00;6127181;23;20445;-78
2022/09/03 09:34:44;;;;;;;12.73;4.97;;;;;;;21.63;45.10;101040.03;6127294;23;20033;-82
2022/09/03 09:37:14;;;;;;;15.98;5.18;;;;;;;21.66;43.95;101028.38;6127790;23;20006;-78
2022/09/03 09:39:58;;;;;;;12.65;4.60;;;;;;;21.81;44.46;101037.22;6127498;23;20022;-87
2022/09/03 09:42:24;;;;;;;13.55;4.15;;;;;;;22.17;44.63;101074.56;6127301;23;20014;-80
2022/09/03 09:44:50;;;;;;;7.43;4.30;;;;;;;22.19;42.59;101082.28;6127267;23;20443;-81
2022/09/03 09:47:24;;;;;;;10.60;4.28;;;;;;;22.15;42.12;101071.28;6100667;23;20006;-79
2022/09/03 09:49:58;;;;;;;10.18;3.85;;;;;;;21.96;42.46;101040.84;6128098;23;20017;-81
2022/09/03 09:52:27;;;;;;;7.63;3.67;;;;;;;22.28;41.46;101084.75;6127608;23;20072;-78
2022/09/03 09:55:07;;;;;;;11.13;3.67;;;;;;;22.33;42.13;101074.56;6127455;23;20030;-79
2022/09/03 09:57:33;;;;;;;10.85;3.90;;;;;;;22.47;40.63;101080.94;6127171;23;20420;-81
2022/09/03 10:00:11;;;;;;;8.10;3.78;;;;;;;22.57;41.11;101089.44;6127126;23;20028;-85
2022/09/03 10:02:39;;;;;;;7.32;3.63;;;;;;;22.60;41.34;101078.59;6127283;23;20297;-77
2022/09/03 10:05:12;;;;;;;13.45;5.47;;;;;;;22.68;41.29;101077.75;6127391;23;20006;-79
2022/09/03 10:07:38;;;;;;;12.13;4.85;;;;;;;22.70;40.49;101075.75;6127389;23;20010;-80
2022/09/03 10:10:13;;;;;;;12.32;5.28;;;;;;;22.74;41.00;101081.53;6127330;23;20032;-80
2022/09/03 10:13:04;;;;;;;11.48;5.60;;;;;;;22.64;40.96;101065.09;6127188;23;20012;-80
2022/09/03 10:15:39;;;;;;;12.80;4.38;;;;;;;22.77;40.17;101065.38;6126945;23;20006;-79
2022/09/03 10:18:26;;;;;;;16.23;5.78;;;;;;;22.86;40.68;101075.75;6127474;23;20002;-77
2022/09/03 10:21:31;;;;;;;11.52;4.30;;;;;;;22.91;40.68;101085.78;6127206;23;20008;-79
2022/09/03 10:24:14;;;;;;;15.07;5.30;;;;;;;22.99;39.84;101071.72;5981267;23;20016;-83
2022/09/03 10:26:43;;;;;;;10.57;5.78;;;;;;;23.00;39.48;101068.91;5981125;24;20099;-80
2022/09/03 10:29:09;;;;;;;12.93;4.93;;;;;;;22.92;39.94;101047.09;5980941;24;20087;-80
2022/09/03 10:32:11;;;;;;;10.88;3.95;;;;;;;23.11;40.07;101073.84;5980421;24;20482;-81
2022/09/03 10:34:36;;;;;;;10.43;4.85;;;;;;;23.11;39.50;101073.00;5981103;24;20012;-82
2022/09/03 10:37:20;;;;;;;9.63;4.22;;;;;;;23.18;40.02;101068.66;5981269;24;20410;-79
2022/09/03 10:40:07;;;;;;;12.65;4.65;;;;;;;23.21;39.90;101067.53;5981126;24;20016;-79
2022/09/03 10:42:39;;;;;;;10.02;3.65;;;;;;;23.31;40.30;101066.31;5981251;24;20080;-80
2022/09/03 10:45:20;;;;;;;9.95;4.15;;;;;;;23.34;39.81;101068.59;5957621;24;20343;-78
2022/09/03 10:48:03;;;;;;;;;;;;;;;23.39;40.32;101068.06;5981464;24;20008;-79
2022/09/03 10:50:39;;;;;;;9.73;3.58;;;;;;;23.48;39.16;101074.91;5980965;24;19910;-78
2022/09/03 10:53:16;;;;;;;6.75;3.88;;;;;;;23.50;39.43;101067.69;5981118;24;20092;-78
2022/09/03 10:56:03;;;;;;;9.57;3.97;;;;;;;23.55;39.76;101072.41;5981033;24;20037;-85
2022/09/03 10:58:47;;;;;;;7.65;3.20;;;;;;;23.61;39.58;101071.75;5980651;24;20008;-79
2022/09/03 11:01:27;;;;;;;10.48;4.32;;;;;;;23.61;39.55;101062.03;6116074;23;20018;-80
2022/09/03 11:04:16;;;;;;;16.90;4.18;;;;;;;23.78;39.65;101064.53;6126585;23;20491;-81
2022/09/03 11:06:53;;;;;;;10.48;4.40;;;;;;;23.78;38.98;101061.88;6126890;23;20010;-81
2022/09/03 11:09:36;;;;;;;10.40;3.85;;;;;;;23.77;38.67;101061.06;6126467;23;20006;-78
2022/09/03 11:12:21;;;;;;;11.07;3.83;;;;;;;23.79;38.27;101066.97;6126474;23;20002;-79
2022/09/03 11:14:56;;;;;;;9.48;3.60;;;;;;;23.84;38.44;101061.19;6126589;23;20006;-79
2022/09/03 11:17:28;;;;;;;7.43;3.42;;;;;;;23.85;38.82;101061.00;6126751;23;20085;-87
2022/09/03 11:20:15;;;;;;;10.02;3.97;;;;;;;23.73;38.93;101041.34;6126760;23;20072;-81
2022/09/03 11:22:44;;;;;;;9.65;3.92;;;;;;;23.84;39.24;101058.53;6126196;23;20017;-83
2022/09/03 11:25:12;;;;;;;7.30;3.03;;;;;;;23.79;39.43;101051.16;6126485;23;20032;-89
2022/09/03 11:27:40;;;;;;;8.65;3.30;;;;;;;23.82;38.77;101056.09;6126171;23;20369;-90
2022/09/03 11:30:09;;;;;;;8.27;3.75;;;;;;;23.87;38.53;101056.38;6126170;23;20041;-78
2022/09/03 11:32:52;;;;;;;8.27;3.40;;;;;;;24.01;38.85;101060.88;6126782;23;20002;-88
2022/09/03 11:35:27;;;;;;;8.68;3.08;;;;;;;24.14;38.43;101059.44;6126062;23;20010;-77
2022/09/03 11:38:03;;;;;;;8.45;2.92;;;;;;;24.04;38.38;101028.03;6126765;23;20006;-79
2022/09/03 11:40:33;;;;;;;5.70;3.55;;;;;;;24.12;39.43;101035.06;6126645;23;20006;-86
2022/09/03 11:43:34;;;;;;;7.88;3.40;;;;;;;24.20;38.64;101040.25;6126122;23;20002;-79